Date,TemperatureHighF,TemperatureAvgF,TemperatureLowF,DewpointHighF,DewpointAvgF,DewpointLowF,HumidityHigh,HumidityAvg,HumidityLow,PressureMaxIn,PressureMinIn,WindSpeedMaxMPH,WindSpeedAvgMPH,GustSpeedMaxMPH,PrecipitationSumIn
2013-1-1,20,4,-11,15,-10,-27,83,52,44,29.42,29.13,12,2,12,0.00
2013-1-2,22,17,14,19,14,11,92,86,74,29.22,29.07,11,3,12,0.00
2013-1-3,19,13,9,12,2,-4,74,61,51,29.42,29.19,13,5,15,0.00
2013-1-4,32,21,13,14,11,0,83,65,48,29.28,29.13,13,4,15,0.00
2013-1-5,29,17,9,13,9,6,85,71,48,29.25,28.98,13,3,13,0.00
2013-1-6,26,16,9,13,8,5,90,71,48,29.34,29.16,13,4,13,0.00
2013-1-7,39,29,20,23,19,13,91,67,51,29.16,29.01,19,6,19,0.00
2013-1-8,38,28,17,28,22,14,92,78,55,29.10,28.89,17,4,17,0.00
2013-1-9,37,31,25,26,20,15,85,64,49,29.48,29.04,26,6,26,0.00
2013-1-10,44,35,27,34,24,18,98,66,41,29.39,28.86,15,4,15,0.12
2013-1-11,40,37,34,40,36,34,98,98,95,28.86,28.54,17,4,17,0.16
2013-1-12,38,14,3,36,2,-11,94,60,51,29.22,28.54,30,9,30,0.04
2013-1-13,10,4,0,-4,-10,-14,51,51,51,29.36,29.16,11,4,13,0.00
2013-1-14,21,8,2,4,-7,-12,52,50,46,29.51,29.36,13,3,13,0.00
2013-1-15,33,20,8,15,5,-8,72,52,44,29.42,28.98,17,4,17,0.00
2013-1-16,37,26,10,32,17,-3,96,68,43,29.34,28.77,20,6,20,0.00
2013-1-17,24,12,3,8,-1,-9,69,55,44,29.51,29.34,13,3,13,0.00
2013-1-18,43,30,16,28,22,8,89,71,52,29.39,28.86,15,5,15,0.00
2013-1-19,40,23,2,29,13,-14,97,67,46,29.36,28.83,28,7,32,0.00
2013-1-20,12,3,-4,-5,-13,-19,47,47,47,29.51,29.36,17,6,20,0.00
2013-1-21,-2,-7,-12,-17,-22,-27,47,47,47,29.45,29.36,17,6,17,0.00
2013-1-22,5,-3,-13,-11,-18,-27,47,47,47,29.51,29.36,11,3,11,0.00
2013-1-23,19,7,-4,5,-9,-21,61,47,44,29.69,29.25,21,5,21,0.00
2013-1-24,14,3,-6,-4,-14,-22,45,45,45,29.78,29.28,15,4,19,0.00
2013-1-25,20,13,3,10,-2,-13,67,50,44,29.42,29.07,24,6,24,0.00
2013-1-26,26,13,-2,8,-4,-17,54,46,43,29.48,29.22,15,3,17,0.00
2013-1-27,33,30,24,32,22,8,98,73,48,29.22,28.92,13,3,13,0.00
2013-1-28,39,33,31,35,32,30,98,95,78,29.04,28.77,8,2,8,0.04
2013-1-29,38,33,28,33,28,20,98,84,68,28.89,28.69,16,4,16,0.17
2013-1-30,28,18,8,20,6,-4,73,62,54,28.92,28.77,19,6,19,0.00
2013-1-31,8,1,-9,-4,-10,-20,59,59,59,29.42,28.89,20,8,20,0.00
2013-2-1,6,-3,-14,-5,-14,-24,59,59,59,29.45,29.13,11,3,11,0.00
2013-2-2,17,8,1,1,-6,-10,59,52,44,29.31,29.10,9,3,10,0.00
2013-2-3,19,11,4,4,-4,-13,55,50,45,29.22,29.07,13,4,13,0.00
2013-2-4,23,12,5,12,-4,-8,86,48,38,29.19,28.89,10,4,10,0.00
2013-2-5,35,23,6,26,14,0,95,72,42,29.22,28.77,12,4,12,0.00
2013-2-6,32,16,2,18,9,-4,83,72,53,29.22,29.04,12,4,12,0.00
2013-2-7,27,25,21,22,20,16,94,80,64,29.36,29.10,15,7,15,0.00
2013-2-8,29,24,21,20,15,11,78,67,53,29.48,29.34,18,4,18,0.00
2013-2-9,33,29,26,28,24,20,94,81,74,29.34,29.04,21,6,21,0.00
2013-2-10,34,31,29,33,29,24,98,93,83,29.04,28.42,15,5,15,0.00
2013-2-11,30,25,15,29,16,8,98,70,53,29.16,28.48,24,7,24,0.00
2013-2-12,39,24,14,20,15,8,86,69,45,29.19,28.95,15,4,15,0.00
2013-2-13,45,29,15,32,21,12,98,74,47,28.95,28.71,11,3,11,0.00
2013-2-14,36,27,11,32,17,-3,98,66,39,29.31,28.71,12,4,14,0.00
2013-2-15,22,12,3,3,-4,-13,54,48,42,29.45,29.31,12,4,12,0.00
2013-2-16,29,11,0,9,-5,-16,75,47,42,29.39,29.19,9,2,10,0.00
2013-2-17,37,23,9,20,9,-7,71,54,47,29.22,28.77,24,5,24,0.00
2013-2-18,34,23,6,31,13,-6,89,66,53,28.95,28.66,19,6,19,0.00
2013-2-19,9,3,-4,-3,-8,-15,57,57,57,29.48,28.95,17,7,18,0.00
2013-2-20,25,7,-9,2,-8,-20,57,49,35,29.60,29.48,8,3,9,0.00
2013-2-21,27,16,6,7,0,-10,54,47,42,29.57,29.19,14,6,14,0.00
2013-2-22,33,24,20,20,17,7,90,75,50,29.22,28.98,15,5,15,0.00
2013-2-23,30,21,14,19,15,10,90,76,54,29.10,28.98,11,3,11,0.00
2013-2-24,42,22,6,21,11,2,83,65,42,29.25,29.07,9,1,9,0.00
2013-2-25,45,30,19,24,18,14,82,60,42,29.25,29.13,6,1,6,0.00
2013-2-26,40,28,18,23,20,14,93,71,51,29.16,29.01,15,6,15,0.00
2013-2-27,42,33,27,23,21,19,77,63,42,29.16,29.01,17,8,17,0.00
2013-2-28,31,28,24,19,16,10,73,59,53,29.34,29.16,13,6,13,0.00
2013-3-1,34,25,17,17,11,8,67,54,45,29.48,29.34,11,6,12,0.00
2013-3-2,39,22,8,14,8,2,78,55,32,29.45,29.31,8,2,8,0.00
2013-3-3,40,28,19,12,6,-2,50,41,19,29.31,29.10,15,3,15,0.00
2013-3-4,30,25,22,22,16,8,93,68,43,29.16,29.04,13,5,15,0.00
2013-3-5,35,26,21,23,20,15,95,79,54,29.42,29.07,11,5,11,0.00
2013-3-6,41,25,13,21,14,8,80,64,44,29.54,29.42,9,3,9,0.00
2013-3-7,42,23,7,20,11,2,81,62,39,29.51,29.39,13,3,13,0.00
2013-3-8,48,32,18,27,21,13,87,67,43,29.45,29.19,13,3,13,0.00
2013-3-9,38,36,33,37,34,26,98,96,69,29.22,28.83,12,2,12,0.00
2013-3-10,34,33,29,34,27,21,98,78,67,29.10,28.89,22,10,22,0.00
2013-3-11,33,28,21,21,18,11,75,66,51,29.01,28.89,13,6,15,0.00
2013-3-12,32,25,20,16,12,6,72,57,44,29.34,28.95,20,6,20,0.00
2013-3-13,34,22,12,15,10,6,76,60,43,29.51,29.31,12,4,12,0.00
2013-3-14,49,33,24,27,21,14,93,64,41,29.36,29.13,11,3,11,0.00
2013-3-15,35,31,25,32,28,21,96,87,73,29.16,28.95,13,4,13,0.00
2013-3-16,31,22,11,22,10,-2,91,62,42,29.36,29.01,13,6,13,0.00
2013-3-17,32,20,8,18,4,-4,66,50,40,29.39,29.01,20,5,20,0.00
2013-3-18,30,22,11,29,13,1,98,69,49,29.01,28.74,25,8,25,0.00
2013-3-19,26,14,6,5,-2,-9,65,51,34,29.36,28.95,18,8,18,0.00
2013-3-20,25,13,5,2,-5,-12,48,43,36,29.36,29.25,20,7,20,0.00
2013-3-21,35,19,2,10,-1,-13,54,42,30,29.28,29.16,9,2,9,0.00
2013-3-22,45,25,7,14,6,-5,61,46,20,29.25,29.16,10,2,10,0.00
2013-3-23,46,29,14,19,13,7,76,53,32,29.28,29.19,11,2,11,0.00
2013-3-24,36,30,26,24,19,16,87,66,46,29.25,29.07,15,6,15,0.00
2013-3-25,42,31,23,20,15,11,72,50,38,29.36,29.13,13,6,13,0.00
2013-3-26,44,30,22,22,16,12,74,58,39,29.45,29.36,13,4,13,0.00
2013-3-27,50,33,16,27,16,11,91,55,26,29.48,29.42,9,1,9,0.00
2013-3-28,51,36,21,26,19,10,75,52,37,29.48,29.36,11,2,11,0.00
2013-3-29,57,42,32,36,29,21,76,60,42,29.42,29.19,15,2,18,0.00
2013-3-30,58,45,34,41,36,30,94,71,49,29.22,29.01,15,4,15,0.00
2013-3-31,42,34,22,33,22,8,98,64,33,29.25,28.95,21,7,21,0.00
2013-4-1,37,26,16,15,10,6,65,51,38,29.39,29.25,15,5,15,0.00
2013-4-2,41,29,18,16,12,5,83,51,29,29.48,29.36,13,3,13,0.00
2013-4-3,49,35,19,29,19,7,82,53,36,29.51,29.22,26,4,26,0.00
2013-4-4,54,43,32,32,25,18,75,50,35,29.31,29.13,20,6,20,0.00
2013-4-5,47,34,26,34,23,14,98,66,36,29.36,29.01,13,5,13,0.00
2013-4-6,58,43,35,44,33,25,95,69,48,29.04,28.66,20,5,20,0.00
2013-4-7,54,42,35,41,33,28,96,71,46,29.10,28.89,12,3,12,0.00
2013-4-8,48,43,40,43,40,35,98,90,75,29.19,28.80,13,5,13,0.00
2013-4-9,43,38,32,35,30,23,98,74,49,29.31,29.07,25,10,25,0.00
2013-4-10,38,34,30,31,24,18,98,66,49,29.34,29.01,23,8,23,0.00
2013-4-11,36,33,30,33,30,21,98,88,56,29.04,28.83,19,6,19,0.00
2013-4-12,40,32,27,30,26,22,98,79,55,28.98,28.80,11,4,12,0.00
2013-4-13,42,34,28,28,23,19,97,68,46,29.10,28.95,13,3,13,0.00
2013-4-14,37,33,30,36,28,19,98,83,57,29.10,28.63,18,5,18,0.00
2013-4-15,42,36,32,34,26,21,95,68,54,29.13,28.66,119,10,119,0.00
2013-4-16,51,39,33,27,24,21,78,56,40,29.45,29.10,14,4,14,0.00
2013-4-17,42,37,34,36,28,22,98,70,55,29.45,29.04,17,6,17,0.00
2013-4-18,34,32,31,34,31,29,98,96,87,29.07,28.66,21,9,21,0.00
2013-4-19,45,35,29,30,22,14,98,63,40,29.13,28.66,24,6,24,0.00
2013-4-20,52,36,22,20,7,-12,75,38,8,29.42,29.13,11,3,11,0.00
2013-4-21,52,42,33,48,35,13,98,79,40,29.45,29.16,23,5,26,0.00
2013-4-22,46,37,32,36,31,25,98,82,50,29.34,29.25,19,6,19,0.00
2013-4-23,47,36,28,31,23,15,98,63,38,29.31,29.19,15,2,15,0.00
2013-4-24,52,37,25,35,27,19,97,70,33,29.22,29.04,26,6,29,0.00
2013-4-25,55,42,32,32,27,24,88,57,32,29.36,29.13,17,5,17,0.00
2013-4-26,75,58,44,44,36,27,69,45,28,29.28,29.07,19,5,19,0.00
2013-4-27,78,62,42,44,31,-18,70,37,2,29.31,29.04,15,3,17,0.00
2013-4-28,84,64,50,50,45,40,81,55,29,29.04,28.80,25,6,25,0.00
2013-4-29,80,64,49,56,45,34,89,54,27,28.98,28.71,13,3,13,0.00
2013-4-30,70,64,56,59,43,-6,83,50,5,29.13,28.57,23,5,23,0.00
2013-5-1,56,40,34,39,32,24,96,74,39,29.60,29.13,14,4,14,0.00
2013-5-2,49,40,36,26,23,20,64,50,38,29.66,29.54,17,8,17,0.00
2013-5-3,37,34,32,33,27,20,93,74,52,29.54,29.28,19,9,19,0.00
2013-5-4,51,40,33,39,35,30,97,85,61,29.34,29.22,15,7,15,0.00
2013-5-5,67,51,38,46,40,35,94,68,45,29.34,29.19,8,4,9,0.00
2013-5-6,83,64,46,49,44,40,94,55,31,29.28,29.13,10,2,10,0.00
2013-5-7,86,68,50,51,46,40,86,49,25,29.22,29.10,11,2,13,0.00
2013-5-8,80,66,58,57,49,43,94,57,32,29.19,29.07,12,2,12,0.00
2013-5-9,60,54,44,57,46,26,95,75,47,29.25,29.10,20,8,23,0.00
2013-5-10,75,54,37,31,12,-20,62,30,2,29.28,29.04,14,4,14,0.00
2013-5-11,57,48,39,36,23,-7,59,38,8,29.34,29.01,26,7,26,0.00
2013-5-12,63,48,34,25,7,-10,54,26,5,29.36,29.22,12,3,13,0.00
2013-5-13,75,58,40,45,31,17,45,36,26,29.25,28.77,28,4,28,0.00
2013-5-14,102,76,56,54,32,-19,65,32,2,28.86,28.60,19,4,19,0.00
2013-5-15,83,67,54,48,43,40,64,43,24,29.10,28.83,13,4,13,0.00
2013-5-16,89,71,54,48,40,3,66,36,7,29.10,28.98,12,3,12,0.00
2013-5-17,64,58,55,57,51,34,98,82,34,29.16,29.01,10,4,10,0.00
2013-5-18,86,67,56,67,60,55,98,81,45,29.16,28.92,17,3,18,0.00
2013-5-19,83,69,64,68,64,61,98,85,51,28.95,28.71,16,2,16,0.00
2013-5-20,74,66,58,64,59,52,98,79,51,28.77,28.66,23,3,23,0.00
2013-5-21,63,57,48,61,56,48,98,96,85,28.86,28.66,6,2,6,0.00
2013-5-22,53,49,45,50,47,41,98,93,63,29.13,28.83,13,5,13,0.00
2013-5-23,70,55,44,42,33,24,82,48,24,29.48,29.13,11,4,13,0.00
2013-5-24,75,57,40,52,36,22,94,49,30,29.54,29.31,15,2,15,0.00
2013-5-25,63,56,52,52,47,40,97,73,52,29.42,29.34,23,3,23,0.00
2013-5-26,57,55,52,48,42,35,74,62,48,29.36,29.16,12,3,12,0.00
2013-5-27,61,57,53,56,52,47,98,85,66,29.19,28.98,17,3,17,0.00
2013-5-28,62,57,53,58,55,52,98,93,84,28.98,28.89,5,1,6,0.00
2013-5-29,77,65,54,72,62,53,98,89,67,28.98,28.77,14,1,14,0.00
2013-5-30,80,69,63,66,63,59,98,83,50,28.86,28.69,25,4,25,0.00
2013-5-31,80,68,62,63,54,47,96,63,36,28.74,28.66,24,4,24,0.00
2013-6-1,81,61,52,59,51,42,93,72,42,29.10,28.71,13,2,13,0.00
2013-6-2,74,59,47,45,40,35,87,52,32,29.25,29.07,9,2,9,0.00
2013-6-3,75,61,48,47,41,37,91,50,32,29.22,29.10,10,1,10,0.00
2013-6-4,65,59,55,55,49,42,95,69,47,29.22,29.13,17,2,17,0.00
2013-6-5,72,58,53,60,54,49,98,89,59,29.22,29.07,8,1,8,0.00
2013-6-6,57,54,51,54,51,49,97,90,82,29.19,29.10,6,2,6,0.00
2013-6-7,71,60,52,54,51,47,95,74,47,29.22,29.07,4,0,4,0.00
2013-6-8,74,64,53,56,52,48,94,67,43,29.10,29.01,13,1,13,0.00
2013-6-9,70,61,56,63,58,55,98,91,73,29.04,28.89,10,3,10,0.00
2013-6-10,80,68,60,64,60,57,98,79,49,29.01,28.95,9,1,9,0.00
2013-6-11,84,68,58,70,63,57,98,86,58,29.07,28.95,6,1,8,0.00
2013-6-12,75,67,60,68,61,50,98,84,57,29.10,28.95,12,2,12,0.00
2013-6-13,87,71,58,55,52,47,74,53,33,29.28,29.07,8,2,8,0.00
2013-6-14,84,71,58,60,55,48,78,59,41,29.22,29.04,17,2,17,0.00
2013-6-15,78,70,63,69,64,60,97,82,61,29.07,29.01,13,1,13,0.00
2013-6-16,94,72,58,62,54,40,97,60,17,29.10,29.01,30,2,30,0.00
2013-6-17,90,72,58,60,55,50,91,58,29,29.19,29.01,9,2,13,0.00
2013-6-18,86,69,57,59,53,48,76,60,36,29.25,29.13,7,2,7,0.00
2013-6-19,93,75,60,63,56,52,81,55,32,29.22,29.07,12,2,12,0.00
2013-6-20,93,80,69,66,61,55,76,54,37,29.16,29.01,15,3,15,0.00
2013-6-21,87,73,62,69,65,60,98,79,52,29.22,28.89,17,2,17,0.00
2013-6-22,87,73,64,72,67,63,98,83,53,29.16,28.98,10,1,15,0.00
2013-6-23,87,75,68,70,66,60,98,76,42,29.04,28.83,19,4,19,0.00
2013-6-24,87,73,64,71,67,62,98,81,55,29.07,28.95,13,1,13,0.00
2013-6-25,92,77,64,74,68,63,95,76,48,29.01,28.86,13,1,13,0.00
2013-6-26,96,80,71,77,69,61,97,72,38,28.98,28.83,12,2,12,0.00
2013-6-27,93,79,67,66,59,50,94,55,27,29.01,28.95,13,2,13,0.00
2013-6-28,83,72,65,65,58,52,95,62,43,29.01,28.92,17,3,17,0.00
2013-6-29,82,69,62,63,56,45,98,67,40,29.13,28.89,11,3,11,0.00
2013-6-30,88,71,58,56,50,46,83,51,30,29.31,29.13,8,2,8,0.00
2013-7-1,93,75,60,63,55,48,86,54,29,29.34,29.25,6,1,6,0.00
2013-7-2,94,74,60,56,53,48,84,51,27,29.34,29.19,7,1,7,0.00
2013-7-3,95,74,58,62,54,45,95,55,23,29.22,29.10,9,0,9,0.00
2013-7-4,95,78,64,61,56,51,77,50,27,29.13,29.01,13,2,15,0.00
2013-7-5,91,79,68,63,59,52,66,51,37,29.07,28.95,17,4,17,0.00
2013-7-6,93,81,72,66,62,59,66,54,40,29.07,28.95,13,3,13,0.00
2013-7-7,102,83,72,72,67,62,91,61,36,29.07,28.95,10,2,11,0.00
2013-7-8,98,79,67,71,67,64,96,71,40,29.19,29.04,6,1,6,0.00
2013-7-9,89,78,68,74,69,63,98,75,53,29.13,28.92,16,2,20,0.00
2013-7-10,88,74,61,64,56,51,86,57,32,29.25,29.10,7,2,12,0.00
2013-7-11,92,75,60,66,57,52,97,59,30,29.31,29.13,13,2,13,0.00
2013-7-12,93,79,68,63,58,53,66,50,35,29.16,29.04,23,4,23,0.00
2013-7-13,82,72,65,69,64,57,98,76,53,29.22,28.88,19,3,19,0.00
2013-7-14,92,78,69,67,64,59,82,65,41,29.34,29.19,13,2,13,0.00
2013-7-15,94,80,67,70,66,62,90,64,39,29.42,29.31,10,1,10,0.00
2013-7-16,96,83,73,74,70,65,93,68,40,29.36,29.31,12,2,12,0.00
2013-7-17,99,84,71,74,70,66,96,68,37,29.39,29.25,13,2,13,0.00
2013-7-18,95,84,73,73,70,65,93,66,40,29.28,28.92,15,4,15,0.00
2013-7-19,91,80,71,71,63,55,90,57,34,29.07,28.89,13,3,13,0.00
2013-7-20,90,73,63,68,60,54,90,65,39,29.13,29.01,14,1,14,0.00
2013-7-21,89,72,58,69,61,49,98,70,45,29.10,28.95,8,2,8,0.00
2013-7-22,94,76,67,72,64,53,96,70,39,29.04,28.83,13,3,13,0.00
2013-7-23,85,70,61,57,53,47,82,58,33,29.19,29.01,9,2,9,0.00
2013-7-24,86,68,59,60,56,51,85,65,40,29.22,29.13,8,0,9,0.00
2013-7-25,87,73,60,68,61,55,96,69,38,29.13,29.07,9,2,9,0.00
2013-7-26,75,65,56,66,55,46,96,72,45,29.25,29.07,13,3,15,0.00
2013-7-27,67,58,50,49,46,42,91,66,44,29.25,29.07,13,3,13,0.00
2013-7-28,80,63,49,53,48,44,86,61,40,29.22,29.10,8,1,8,0.00
2013-7-29,83,67,52,59,53,50,96,65,38,29.31,29.19,10,1,10,0.00
2013-7-30,73,67,62,65,62,56,95,84,73,29.28,29.19,5,0,5,0.00
2013-7-31,86,69,60,68,59,48,98,74,41,29.22,29.13,13,1,13,0.00
2013-8-1,90,71,54,59,54,50,94,59,31,29.22,29.01,8,1,9,0.00
2013-8-2,85,70,62,59,53,47,80,58,35,29.22,29.01,10,2,10,0.00
2013-8-3,86,68,54,58,52,45,93,59,31,29.34,29.19,8,1,8,0.00
2013-8-4,80,65,53,60,53,48,92,68,41,29.39,29.16,8,0,8,0.00
2013-8-5,87,69,60,70,62,55,98,81,50,29.19,28.95,10,1,10,0.00
2013-8-6,88,70,57,67,61,56,98,78,44,29.01,28.83,15,2,15,0.00
2013-8-7,83,68,60,61,54,46,98,68,33,29.19,28.95,8,2,8,0.00
2013-8-8,80,65,55,62,57,52,96,77,43,29.25,29.13,10,1,10,0.00
2013-8-9,82,68,58,60,54,47,98,66,34,29.28,29.13,11,2,11,0.00
2013-8-10,85,70,60,57,53,48,84,58,33,29.36,29.25,6,0,6,0.00
2013-8-11,90,72,64,67,60,55,91,70,43,29.25,29.13,4,0,4,0.00
2013-8-12,84,71,62,65,56,50,97,64,35,29.25,29.13,11,2,11,0.00
2013-8-13,83,67,54,56,50,43,94,59,30,29.36,29.22,7,1,7,0.00
2013-8-14,82,66,52,58,50,45,98,63,31,29.36,29.25,8,1,8,0.00
2013-8-15,86,67,54,61,54,49,94,66,35,29.28,29.22,7,1,7,0.00
2013-8-16,85,68,55,62,55,50,98,68,33,29.36,29.28,8,1,8,0.00
2013-8-17,88,69,55,59,54,51,94,64,34,29.36,29.25,15,2,15,0.00
2013-8-18,86,70,58,61,56,54,93,64,37,29.31,29.13,15,2,15,0.00
2013-8-19,91,75,64,69,64,58,87,70,43,29.19,29.04,12,2,12,0.00
2013-8-20,93,79,69,73,69,65,88,74,49,29.10,29.01,15,2,15,0.00
2013-8-21,91,78,71,78,71,60,95,81,59,29.16,29.01,10,2,10,0.00
2013-8-22,92,77,64,61,52,47,70,44,28,29.31,29.13,7,2,7,0.00
2013-8-23,91,74,61,67,59,48,84,61,41,29.31,29.19,16,1,16,0.00
2013-8-24,91,79,70,73,69,66,87,73,48,29.25,29.10,24,4,24,0.00
2013-8-25,98,85,76,75,72,70,86,68,44,29.19,29.07,16,4,16,0.00
2013-8-26,98,84,75,78,74,70,92,74,46,29.16,29.01,13,3,13,0.00
2013-8-27,100,84,74,80,74,72,95,76,47,29.10,28.95,6,1,6,0.00
2013-8-28,95,80,69,77,71,66,97,79,44,29.16,29.07,6,0,6,0.00
2013-8-29,98,82,74,76,71,66,95,73,38,29.16,29.01,13,2,13,0.00
2013-8-30,88,77,70,73,66,62,91,72,46,29.10,28.98,8,2,8,0.00
2013-8-31,95,75,64,69,65,62,96,74,39,29.07,28.89,10,1,15,0.04
2013-9-1,75,68,62,66,59,52,92,74,53,29.16,28.92,13,2,13,0.04
2013-9-2,68,61,53,65,54,49,93,78,56,29.25,28.85,6,2,6,0.04
2013-9-3,85,63,47,59,53,47,98,76,39,29.28,28.88,5,1,7,0.00
2013-9-4,94,73,59,71,61,57,98,71,37,29.31,28.88,4,1,5,0.00
2013-9-5,89,73,63,68,60,54,90,65,42,29.36,29.00,10,1,10,0.00
2013-9-6,94,79,69,70,66,62,97,69,38,29.28,29.01,14,3,14,0.04
2013-9-7,96,80,68,72,66,61,94,67,36,29.16,29.01,9,2,9,0.00
2013-9-8,80,71,66,66,62,58,85,75,59,29.22,29.04,10,2,11,0.00
2013-9-9,96,79,68,74,69,65,96,74,41,29.04,28.77,13,3,13,0.00
2013-9-10,83,73,66,69,65,60,97,77,51,29.16,28.92,8,2,8,0.00
2013-9-11,89,73,62,64,56,46,97,61,29,29.22,29.13,11,2,11,0.00
2013-9-12,78,65,56,55,48,41,84,56,33,29.39,29.22,13,3,13,0.00
2013-9-13,77,60,47,49,44,39,92,59,32,29.42,29.25,7,1,7,0.00
2013-9-14,73,58,48,56,48,42,98,72,39,29.25,29.01,11,2,11,0.29
2013-9-15,69,59,51,58,53,44,98,83,51,29.45,29.01,8,2,8,0.62
2013-9-16,74,56,42,48,43,40,95,67,36,29.54,29.36,9,1,9,0.00
2013-9-17,70,57,48,59,50,42,98,78,54,29.39,29.07,18,3,19,0.00
2013-9-18,83,68,59,71,66,59,98,92,67,29.10,28.86,15,2,15,0.04
2013-9-19,81,71,64,71,66,53,98,85,61,29.01,28.83,15,2,15,0.33
2013-9-20,70,58,51,56,50,45,96,76,46,29.13,28.95,13,3,13,0.00
2013-9-21,72,55,46,48,46,42,96,74,41,29.16,29.04,6,1,6,0.00
2013-9-22,80,61,47,54,50,44,95,70,40,29.10,28.98,14,2,14,0.00
2013-9-23,78,64,54,53,50,46,84,63,39,29.10,29.01,21,3,21,0.00
2013-9-24,83,63,51,56,51,48,94,69,37,29.13,29.04,10,1,10,0.00
2013-9-25,80,64,50,57,51,47,97,67,37,29.13,29.01,13,1,13,0.00
2013-9-26,85,69,56,60,55,51,83,64,40,29.07,28.95,23,3,23,0.00
2013-9-27,87,74,67,65,60,57,80,64,41,29.07,28.95,17,4,20,0.00
2013-9-28,72,61,48,64,54,44,98,77,59,29.10,28.80,23,3,23,0.13
2013-9-29,80,60,44,49,44,42,95,61,30,29.13,28.95,17,3,17,0.00
2013-9-30,83,68,60,52,47,42,60,48,32,28.98,28.74,19,4,19,0.00
2013-10-1,81,67,53,52,38,-17,68,40,2,29.16,28.77,12,2,12,0.00
2013-10-2,80,60,44,56,42,33,98,58,24,29.19,28.98,15,2,15,0.66
2013-10-3,60,58,55,59,57,54,98,96,92,29.10,28.98,4,-710,0,0.70
2013-10-4,58,56,54,57,55,54,98,95,89,29.13,28.95,0,-999,0,0.42
2013-10-5,60,54,42,58,49,40,98,85,50,28.98,28.89,0,-999,0,0.46
2013-10-6,56,46,38,55,45,38,98,95,81,29.01,28.83,12,-512,12,0.04
2013-10-7,77,54,40,50,42,35,98,69,32,29.13,28.98,6,1,6,0.00
2013-10-8,80,63,50,48,43,39,73,50,31,29.13,28.95,25,4,25,0.00
2013-10-9,81,65,56,52,48,44,74,54,33,29.19,29.07,14,3,14,0.00
2013-10-10,82,65,54,54,48,44,71,55,34,29.19,29.01,19,3,19,0.00
2013-10-11,75,65,56,63,53,50,94,67,45,29.04,28.77,27,5,27,0.12
2013-10-12,61,51,44,53,40,35,91,69,45,29.34,28.86,20,4,20,0.05
2013-10-13,68,49,34,43,35,29,97,63,33,29.57,29.34,6,1,6,0.00
2013-10-14,56,48,40,49,38,33,98,70,49,29.51,29.10,9,2,9,0.54
2013-10-15,53,49,46,52,49,45,98,98,97,29.10,28.80,12,4,12,1.32
2013-10-16,60,47,38,45,38,30,98,74,41,29.10,28.98,9,2,9,0.04
2013-10-17,63,46,38,46,38,33,96,78,38,29.04,28.89,10,2,10,0.09
2013-10-18,59,45,36,41,33,26,98,69,36,29.13,28.98,12,2,13,0.13
2013-10-19,50,39,30,39,34,27,98,83,55,28.98,28.86,0,-871,0,0.00
2013-10-20,49,37,29,41,33,27,96,85,56,29.04,28.74,0,-999,0,0.04
2013-10-21,43,35,29,33,20,17,85,54,43,29.13,29.04,0,-999,0,0.00
2013-10-22,42,34,23,31,25,19,90,71,52,29.19,29.07,8,-171,8,0.00
2013-10-23,41,35,31,29,22,16,86,61,45,29.25,29.13,11,2,11,0.00
2013-10-24,46,38,32,29,24,17,81,58,45,29.45,29.25,13,3,13,0.00
2013-10-25,60,43,24,40,31,23,95,66,43,29.48,28.92,17,4,17,0.00
2013-10-26,53,43,35,40,27,23,71,53,41,29.25,28.95,16,4,16,0.00
2013-10-27,64,43,27,35,28,24,91,60,34,29.28,28.95,13,3,13,0.00
2013-10-28,48,38,31,28,22,15,79,54,37,29.57,29.25,11,4,11,0.00
2013-10-29,42,37,30,38,26,18,96,64,55,29.54,29.22,6,3,6,0.00
2013-10-30,49,45,39,49,44,38,98,98,96,29.22,28.83,9,1,9,0.05
2013-10-31,49,42,40,49,40,36,98,93,81,28.83,28.54,11,3,11,0.09
2013-11-1,55,44,38,39,35,30,96,73,47,29.01,28.57,13,3,13,0.00
2013-11-2,56,42,34,37,30,26,89,66,40,29.22,29.01,11,2,11,0.00
2013-11-3,58,46,36,34,30,28,79,57,37,29.22,29.01,29,5,30,0.41
2013-11-4,51,44,33,46,36,30,98,73,50,29.28,28.95,23,4,23,0.17
2013-11-5,46,35,28,41,30,22,98,84,46,29.36,29.16,11,2,11,0.00
2013-11-6,42,34,28,32,25,20,98,72,47,29.31,29.13,11,4,11,0.04
2013-11-7,36,29,25,28,26,23,98,88,68,29.36,29.28,11,3,13,0.00
2013-11-8,46,36,23,40,27,22,97,73,43,29.36,28.74,20,4,20,0.04
2013-11-9,44,41,35,40,30,21,87,66,49,29.36,28.77,25,7,25,0.00
2013-11-10,42,37,33,30,26,23,74,63,52,29.48,29.22,10,4,15,0.00
2013-11-11,38,25,15,30,10,2,81,53,42,29.84,29.25,14,6,14,0.00
2013-11-12,32,19,10,11,5,-1,71,54,39,29.87,29.57,13,4,13,0.00
2013-11-13,56,37,19,33,21,9,70,53,41,29.57,29.01,17,6,17,0.00
2013-11-14,57,41,34,38,31,27,88,70,47,29.01,28.89,12,3,12,0.00
2013-11-15,59,43,30,39,33,28,98,72,43,28.98,28.77,16,4,16,0.00
2013-11-16,49,44,40,48,42,32,98,92,65,28.80,28.39,15,3,15,0.13
2013-11-17,44,39,31,42,34,20,98,81,63,28.98,28.48,23,7,23,0.00
2013-11-18,40,30,22,22,18,14,80,59,45,29.39,28.98,23,6,23,0.00
2013-11-19,49,36,22,27,23,17,84,60,41,29.39,29.01,23,6,23,0.00
2013-11-20,46,42,38,34,28,23,85,59,45,29.16,29.01,18,6,18,0.00
2013-11-21,38,30,24,36,24,10,96,77,55,29.63,29.16,13,5,14,0.00
2013-11-22,38,23,11,12,6,-14,75,51,12,29.75,29.54,20,5,20,0.00
2013-11-23,23,12,6,2,-5,-12,56,46,37,29.93,29.72,13,4,15,0.00
2013-11-24,34,19,4,13,2,-13,55,46,41,29.81,29.13,24,6,25,0.00
2013-11-25,39,33,27,26,20,12,78,57,49,29.25,29.01,20,7,20,0.00
2013-11-26,30,21,13,16,4,-1,56,48,42,29.51,29.19,23,7,23,0.00
2013-11-27,26,18,6,7,2,-7,73,51,44,29.51,29.19,19,3,19,0.00
2013-11-28,30,22,12,12,7,1,61,54,47,29.63,29.19,12,3,12,0.00
2013-11-29,34,23,10,18,10,-1,80,59,46,29.63,29.28,17,3,17,0.00
2013-11-30,42,32,24,25,22,17,89,65,50,29.31,29.13,9,2,9,0.00
2013-12-1,34,28,19,24,21,16,89,75,61,29.34,29.01,5,2,5,0.00
2013-12-2,39,33,28,35,29,22,98,86,67,29.04,28.71,11,3,11,0.08
2013-12-3,35,34,32,34,33,31,98,97,95,28.92,28.74,11,3,11,0.16
2013-12-4,32,27,11,31,25,4,98,91,69,28.92,28.63,19,6,19,0.04
2013-12-5,11,5,-4,4,-2,-10,72,72,72,29.45,28.86,24,7,24,0.00
2013-12-6,7,-4,-10,0,-10,-17,72,72,72,29.75,29.45,11,4,11,0.00
2013-12-7,4,-7,-16,-4,-14,-22,72,72,72,29.84,29.66,12,3,12,0.00
2013-12-8,14,6,-5,6,-2,-11,72,68,61,29.69,29.13,9,3,9,0.00
2013-12-9,10,0,-6,0,-10,-16,63,63,63,29.22,28.98,15,5,15,0.00
2013-12-10,14,8,2,4,-2,-8,63,63,63,29.39,28.89,17,6,17,0.00
2013-12-11,5,-3,-9,-5,-13,-18,63,63,63,29.66,29.39,14,4,14,0.00
2013-12-12,22,12,1,7,1,-9,72,60,46,29.39,29.25,10,3,10,0.00
2013-12-13,17,14,11,7,3,-1,72,62,55,29.39,29.22,15,7,15,0.00
2013-12-14,23,10,-1,8,-3,-13,65,57,51,29.39,29.19,14,4,14,0.00
2013-12-15,9,2,-2,-4,-11,-14,55,55,55,29.28,29.19,12,4,13,0.00
2013-12-16,17,10,2,14,1,-10,92,67,55,29.22,29.04,11,4,11,0.00
2013-12-17,33,23,8,27,12,-4,98,62,46,29.25,29.01,20,6,20,0.00
2013-12-18,41,25,7,24,14,-5,86,63,50,29.22,28.80,13,4,13,0.00
2013-12-19,28,18,15,20,9,3,80,66,53,29.22,28.92,14,8,14,0.00
2013-12-20,21,16,13,11,9,8,81,73,60,29.16,28.98,10,4,10,0.00
2013-12-21,24,19,15,13,10,8,77,70,57,29.13,28.98,11,4,13,0.00
2013-12-22,20,13,2,11,5,-7,78,69,56,29.36,29.07,11,4,11,0.00
2013-12-23,5,-3,-12,-5,-12,-21,65,65,65,29.63,29.36,13,4,13,0.00
2013-12-24,11,-1,-17,2,-10,-26,65,65,65,29.60,29.25,15,4,15,0.00
2013-12-25,32,17,9,23,8,0,86,67,47,29.31,29.16,17,4,17,0.00
2013-12-26,30,20,10,21,14,2,91,76,61,29.28,29.19,6,2,6,0.00
2013-12-27,42,28,13,30,23,10,98,82,54,29.28,29.01,18,4,18,0.04
2013-12-28,50,32,19,34,26,11,98,81,46,29.13,28.77,16,4,16,0.04
2013-12-29,19,-1,-15,11,-10,-24,70,65,63,29.45,29.13,16,5,16,0.00
2013-12-30,4,-5,-16,-6,-14,-25,65,65,65,29.42,29.25,8,2,8,0.00
2013-12-31,4,-5,-11,-5,-14,-20,65,65,65,29.51,29.31,9,3,9,0.00
2014-1-1,3,-3,-8,-6,-11,-16,65,65,65,29.57,29.48,11,5,11,0.00
2014-1-2,9,-3,-13,0,-12,-22,65,65,65,29.60,29.48,8,4,8,0.00